createdAt,value
2019-05-14T00:02:12.318Z,41.40
2019-05-14T00:07:16.956Z,43.10
2019-05-14T00:12:22.288Z,44.70
2019-05-14T00:17:26.858Z,45.60
2019-05-14T00:22:32.000Z,46.40
2019-05-14T00:27:37.488Z,47.10
2019-05-14T00:32:41.769Z,48.20
2019-05-14T00:37:46.066Z,48.10
2019-05-14T00:42:53.113Z,48.40
2019-05-14T00:47:56.414Z,48.70
2019-05-14T00:53:02.007Z,48.90
2019-05-14T00:58:06.507Z,49.50
2019-05-14T01:03:11.165Z,49.70
2019-05-14T01:08:15.604Z,49.80
2019-05-14T01:13:21.926Z,50.10
2019-05-14T01:18:25.936Z,50.10
2019-05-14T01:23:32.302Z,50.50
2019-05-14T01:28:36.227Z,50.60
2019-05-14T01:33:41.045Z,50.90
2019-05-14T01:38:45.507Z,51.10
2019-05-14T01:43:53.814Z,51.50
2019-05-14T01:48:58.112Z,52.00
2019-05-14T01:54:02.463Z,51.90
2019-05-14T01:59:06.755Z,52.10
2019-05-14T02:04:11.606Z,52.60
2019-05-14T02:09:16.164Z,53.20
2019-05-14T02:14:22.049Z,54.00
2019-05-14T02:19:26.619Z,55.20
2019-05-14T02:24:32.148Z,56.10
2019-05-14T02:29:36.711Z,57.40
2019-05-14T02:34:41.141Z,58.20
2019-05-14T02:39:45.475Z,58.80
2019-05-14T02:44:49.792Z,59.40
2019-05-14T02:49:54.261Z,60.10
2019-05-14T02:54:59.678Z,61.20
2019-05-14T03:00:05.189Z,61.20
2019-05-14T03:05:10.192Z,62.30
2019-05-14T03:16:29.038Z,65.40
2019-05-14T03:27:30.487Z,69.90
2019-05-14T03:32:34.122Z,71.00
2019-05-14T03:44:33.741Z,71.30
2019-05-14T03:49:39.716Z,70.40
2019-05-14T03:54:44.255Z,70.70
2019-05-14T03:59:49.895Z,70.60
2019-05-14T04:05:00.122Z,70.60
2019-05-14T04:21:29.810Z,72.50
2019-05-14T04:26:53.293Z,72.90
2019-05-14T04:37:49.661Z,72.00
2019-05-14T04:42:53.068Z,72.50
2019-05-14T04:48:00.129Z,71.80
2019-05-14T04:53:03.692Z,71.70
2019-05-14T04:58:10.117Z,72.70
2019-05-14T05:03:14.335Z,72.50
2019-05-14T05:08:19.963Z,72.50
2019-05-14T05:13:24.539Z,73.50
2019-05-14T05:18:29.756Z,73.00
2019-05-14T05:23:34.388Z,72.00
2019-05-14T05:28:39.267Z,72.80
2019-05-14T05:33:43.739Z,71.40
2019-05-14T05:38:52.409Z,71.30
2019-05-14T05:43:58.877Z,70.50
2019-05-14T05:49:03.026Z,70.30
2019-05-14T05:54:09.331Z,70.80
2019-05-14T05:59:13.786Z,69.20
2019-05-14T06:04:18.335Z,68.70
2019-05-14T06:09:22.866Z,68.60
2019-05-14T06:14:29.135Z,66.80
2019-05-14T06:19:33.315Z,67.60
2019-05-14T06:24:39.014Z,68.10
2019-05-14T06:29:43.734Z,67.00
2019-05-14T06:34:48.846Z,67.30
2019-05-14T06:39:53.612Z,66.60
2019-05-14T06:44:58.589Z,65.70
2019-05-14T06:50:03.337Z,66.50
2019-05-14T06:55:08.899Z,64.50
2019-05-14T07:00:14.177Z,62.40
2019-05-14T07:05:18.879Z,62.00
2019-05-14T07:10:23.539Z,61.90
2019-05-14T07:15:29.029Z,60.30
2019-05-14T07:20:33.539Z,60.40
2019-05-14T07:37:45.390Z,57.50
2019-05-14T07:42:49.811Z,58.30
2019-05-14T07:47:54.187Z,56.90
2019-05-14T07:52:58.807Z,55.90
2019-05-14T07:58:03.271Z,57.30
2019-05-14T08:14:28.874Z,56.00
2019-05-14T08:19:34.555Z,57.10
2019-05-14T08:24:38.753Z,55.50
2019-05-14T08:29:43.197Z,56.20
2019-05-14T08:34:48.055Z,55.10
2019-05-14T08:45:58.552Z,51.60
2019-05-14T08:51:02.579Z,51.00
2019-05-14T08:56:08.404Z,51.70
2019-05-14T09:01:13.080Z,52.40
2019-05-14T09:06:18.575Z,51.50
2019-05-14T09:11:25.698Z,50.50
2019-05-14T09:16:39.525Z,48.00
2019-05-14T09:21:35.466Z,46.30
2019-05-14T09:26:39.772Z,48.90
2019-05-14T09:31:44.050Z,45.90
2019-05-14T09:36:49.017Z,44.10
2019-05-14T09:41:53.443Z,46.10
2019-05-14T09:46:59.431Z,44.00
2019-05-14T09:52:03.792Z,44.20
2019-05-14T09:57:08.431Z,43.70
2019-05-14T10:02:12.900Z,44.50
2019-05-14T10:07:17.549Z,43.70
2019-05-14T10:12:21.938Z,43.20
2019-05-14T10:17:28.821Z,44.10
2019-05-14T10:22:32.525Z,43.60
2019-05-14T10:27:36.883Z,43.20
2019-05-14T10:32:41.829Z,43.80
2019-05-14T10:37:46.506Z,41.40
2019-05-14T10:42:50.811Z,40.70
2019-05-14T10:47:55.141Z,39.20
2019-05-14T10:52:59.795Z,38.80
2019-05-14T11:09:48.625Z,36.70
2019-05-14T11:14:53.232Z,35.90
2019-05-14T11:19:58.663Z,36.10
2019-05-14T11:25:03.249Z,36.90
2019-05-14T11:30:09.201Z,36.90
2019-05-14T11:35:13.680Z,36.90
2019-05-14T11:40:19.516Z,35.30
2019-05-14T11:45:23.824Z,34.60
2019-05-14T11:50:28.853Z,34.40
2019-05-14T11:55:33.377Z,32.40
2019-05-14T12:00:38.696Z,34.10
2019-05-14T12:05:43.402Z,34.60
2019-05-14T12:10:48.820Z,34.60
2019-05-14T12:15:53.131Z,34.60
2019-05-14T12:20:59.393Z,33.80
2019-05-14T12:26:05.277Z,32.80
2019-05-14T12:31:09.618Z,32.00
2019-05-14T12:36:14.188Z,32.70
2019-05-14T12:41:19.395Z,31.90
2019-05-14T12:46:24.004Z,31.20
2019-05-14T12:51:28.403Z,29.50
2019-05-14T12:56:32.747Z,30.40
2019-05-14T13:01:37.031Z,28.90
2019-05-14T13:06:41.344Z,29.90
2019-05-14T13:11:47.887Z,30.10
2019-05-14T13:16:54.461Z,31.40
2019-05-14T13:22:12.143Z,31.70
2019-05-14T13:27:03.767Z,30.70
2019-05-14T13:32:12.202Z,30.80
2019-05-14T13:37:14.185Z,32.00
2019-05-14T13:42:18.760Z,30.20
2019-05-14T13:47:23.259Z,30.10
2019-05-14T13:52:29.269Z,29.90
2019-05-14T13:57:33.843Z,29.60
2019-05-14T14:02:38.206Z,28.10
2019-05-14T14:13:48.726Z,30.00
2019-05-14T14:18:52.207Z,29.00
2019-05-14T14:23:59.048Z,28.80
2019-05-14T14:29:02.986Z,29.40
2019-05-14T14:34:09.147Z,29.40
2019-05-14T14:39:13.986Z,28.90
2019-05-14T14:44:19.161Z,28.40
2019-05-14T14:49:24.051Z,28.30
2019-05-14T14:54:28.952Z,29.00
2019-05-14T14:59:33.866Z,29.20
2019-05-14T15:04:39.679Z,28.60
2019-05-14T15:09:44.381Z,29.60
2019-05-14T15:14:48.926Z,29.10
2019-05-14T15:19:53.383Z,29.10
2019-05-14T15:25:05.104Z,29.00
2019-05-14T15:30:10.222Z,28.50
2019-05-14T15:35:15.469Z,28.40
2019-05-14T15:40:22.470Z,28.10
2019-05-14T15:45:28.661Z,28.50
2019-05-14T15:50:32.948Z,29.20
2019-05-14T15:55:38.361Z,29.10
2019-05-14T16:00:42.814Z,29.10
2019-05-14T16:05:48.775Z,28.70
2019-05-14T16:10:53.364Z,29.10
2019-05-14T16:15:57.726Z,29.30
2019-05-14T16:21:10.265Z,29.00
2019-05-14T16:26:13.414Z,28.50
2019-05-14T16:31:18.456Z,28.50
2019-05-14T16:36:26.112Z,28.30
2019-05-14T16:41:30.575Z,29.30
2019-05-14T16:46:34.920Z,29.30
2019-05-14T16:51:39.443Z,30.00
2019-05-14T16:56:44.035Z,29.60
2019-05-14T17:01:49.137Z,29.60
2019-05-14T17:06:53.881Z,30.00
2019-05-14T17:11:59.051Z,29.70
2019-05-14T17:17:09.093Z,29.00
2019-05-14T17:22:27.618Z,29.60
2019-05-14T17:27:20.542Z,29.40
2019-05-14T17:32:24.901Z,29.30
2019-05-14T17:37:34.461Z,29.40
2019-05-14T17:42:39.609Z,29.60
2019-05-14T17:47:44.518Z,29.80
2019-05-14T17:52:56.475Z,30.00
2019-05-14T17:57:58.413Z,29.90
2019-05-14T18:03:01.276Z,29.90
2019-05-14T18:08:05.640Z,30.00
2019-05-14T18:13:10.110Z,30.30
2019-05-14T18:18:14.629Z,30.50
2019-05-14T18:23:19.065Z,30.00
2019-05-14T18:28:25.549Z,30.00
2019-05-14T18:33:31.367Z,30.50
2019-05-14T18:38:38.578Z,30.60
2019-05-14T18:43:42.284Z,30.90
2019-05-14T18:48:48.719Z,31.40
2019-05-14T18:53:52.739Z,31.40
2019-05-14T18:58:57.074Z,31.90
2019-05-14T19:04:01.423Z,32.00
2019-05-14T19:09:29.239Z,32.30
2019-05-14T19:14:33.514Z,32.60
2019-05-14T19:19:38.657Z,32.70
2019-05-14T19:24:43.294Z,33.00
2019-05-14T19:29:48.439Z,33.20
2019-05-14T19:34:53.139Z,33.30
2019-05-14T19:39:58.705Z,33.60
2019-05-14T19:45:03.241Z,34.00
2019-05-14T19:50:08.974Z,34.40
2019-05-14T19:55:13.846Z,34.60
2019-05-14T20:00:23.810Z,34.50
2019-05-14T20:05:28.624Z,34.70
2019-05-14T20:10:33.249Z,35.00
2019-05-14T20:15:38.941Z,35.30
2019-05-14T20:20:43.605Z,35.60
2019-05-14T20:25:48.240Z,35.70
2019-05-14T20:31:38.915Z,35.70
2019-05-14T20:43:00.075Z,36.00
2019-05-14T20:48:04.444Z,35.60
2019-05-14T20:53:09.746Z,35.60
2019-05-14T20:58:14.067Z,36.20
2019-05-14T21:03:18.825Z,37.00
2019-05-14T21:08:23.162Z,37.30
2019-05-14T21:13:27.827Z,37.30
2019-05-14T21:18:35.014Z,37.70
2019-05-14T21:23:38.600Z,37.80
2019-05-14T21:28:42.917Z,38.40
2019-05-14T21:33:48.948Z,38.50
2019-05-14T21:38:53.212Z,38.50
2019-05-14T21:43:58.385Z,39.60
2019-05-14T21:49:03.554Z,39.40
2019-05-14T21:54:09.484Z,39.80
2019-05-14T21:59:14.063Z,40.30
2019-05-14T22:04:18.723Z,40.80
2019-05-14T22:09:23.237Z,41.20
2019-05-14T22:14:29.785Z,41.30
2019-05-14T22:26:28.688Z,41.90
2019-05-14T22:31:32.985Z,42.40
2019-05-14T22:36:38.622Z,42.50
2019-05-14T22:41:43.385Z,43.00
2019-05-14T22:46:49.037Z,43.00
2019-05-14T22:51:53.501Z,43.10
2019-05-14T22:56:58.998Z,43.10
2019-05-14T23:02:03.517Z,43.30
2019-05-14T23:07:08.229Z,43.30
2019-05-14T23:12:12.706Z,43.30
2019-05-14T23:17:17.021Z,43.40
2019-05-14T23:22:21.334Z,43.50
2019-05-14T23:27:25.705Z,43.30
2019-05-14T23:32:30.110Z,43.60
2019-05-14T23:37:34.759Z,42.90
2019-05-14T23:42:40.323Z,42.80
2019-05-14T23:47:44.827Z,42.60
2019-05-14T23:52:49.499Z,42.50
2019-05-14T23:57:53.907Z,42.50
